Data for 01/10/2005

Time Sea-Level Adjusted Pressure Absolute Pressure Temperature Relative Humidity Dew Point   
(mb) (inHg) (mb) (inHg) (C) (F) (%) (C) (F)
00:05 1014 29.94 843 24.89 -15.5 4.1 89 -16.9 1.6
00:10 1014 29.94 843 24.89 -15.7 3.7 89 -17.1 1.2
00:15 1014 29.94 843 24.89 -15.7 3.7 90 -17.1 1.3
00:20 1014 29.94 843 24.89 -15.8 3.5 89 -17.2 1
00:25 1013 29.91 843 24.89 -15.9 3.4 89 -17.3 0.9
00:30 1013 29.91 843 24.89 -15.6 4 89 -16.9 1.5
00:35 1013 29.91 843 24.89 -15.2 4.6 88 -16.8 1.8
00:40 1013 29.91 843 24.89 -15.1 4.7 89 -16.6 2.1
00:45 1013 29.91 843 24.89 -14.7 5.5 88 -16.4 2.5
00:50 1013 29.91 843 24.89 -14.7 5.6 86 -16.5 2.3
00:55 1013 29.91 843 24.89 -14.7 5.5 87 -16.5 2.4
01:00 1013 29.91 843 24.89 -14.7 5.6 85 -16.7 2
01:05 1013 29.91 843 24.89 -14.8 5.3 87 -16.6 2.2
01:10 1013 29.91 843 24.89 -14.8 5.4 87 -16.6 2.2
01:15 1014 29.94 843 24.89 -14.8 5.3 87 -16.5 2.3
01:20 1013 29.91 843 24.89 -14.8 5.4 87 -16.6 2.2
01:25 1013 29.91 843 24.89 -14.8 5.3 87 -16.5 2.3
01:30 1013 29.91 843 24.89 -14.9 5.2 87 -16.5 2.2
01:35 1013 29.91 843 24.89 -15.1 4.8 88 -16.7 2
01:40 1013 29.91 842 24.86 -14.9 5.1 89 -16.4 2.5
01:45 1013 29.91 843 24.89 -14.7 5.5 90 -16.1 3
01:50 1013 29.91 843 24.89 -14 6.7 88 -15.6 3.9
01:55 1014 29.94 843 24.89 -13.7 7.4 86 -15.5 4.1
02:00 1014 29.94 843 24.89 -13.5 7.7 86 -15.4 4.3
02:05 1014 29.94 843 24.89 -13.4 7.8 88 -15.1 4.9
02:10 1014 29.94 843 24.89 -13 8.6 84 -15.2 4.7
02:15 1014 29.94 843 24.89 -13 8.5 85 -15.1 4.9
02:20 1014 29.94 843 24.89 -13.2 8.2 83 -15.5 4
02:25 1014 29.94 843 24.89 -13.5 7.8 83 -15.7 3.7
02:30 1014 29.94 843 24.89 -13.4 7.9 88 -15 5
02:35 1014 29.94 843 24.89 -13.2 8.3 86 -15.1 4.8
02:40 1014 29.94 843 24.89 -13.1 8.4 86 -15 5
02:45 1014 29.94 843 24.89 -13.2 8.2 87 -15 5
02:50 1014 29.94 843 24.89 -13 8.6 87 -14.7 5.6
02:55 1014 29.94 843 24.89 -13.2 8.2 88 -14.8 5.3
03:00 1014 29.94 843 24.89 -13.4 7.9 86 -15.3 4.5
03:05 1014 29.94 843 24.89 -13.7 7.3 89 -15.1 4.8
03:10 1014 29.94 843 24.89 -13.7 7.4 87 -15.4 4.4
03:15 1014 29.94 843 24.89 -13.5 7.7 91 -14.6 5.7
03:20 1014 29.94 843 24.89 -13.2 8.2 91 -14.3 6.2
03:25 1014 29.94 843 24.89 -12.9 8.7 92 -13.9 7
03:30 1014 29.94 843 24.89 -12.8 9 91 -14 6.8
03:35 1014 29.94 843 24.89 -12.5 9.5 92 -13.6 7.5
03:40 1014 29.94 843 24.89 -12.2 10.1 91 -13.4 7.8
03:45 1014 29.94 843 24.89 -12.4 9.6 91 -13.6 7.5
03:50 1014 29.94 843 24.89 -12.4 9.7 92 -13.5 7.8
03:55 1014 29.94 843 24.89 -12.2 10.1 84 -14.4 6.1
04:00 1014 29.94 843 24.89 -13 8.5 82 -15.5 4
04:05 1014 29.94 843 24.89 -14.1 6.6 85 -16 3.1
04:10 1014 29.94 843 24.89 -14.5 5.9 89 -16 3.2
04:15 1014 29.94 843 24.89 -14.6 5.7 85 -16.6 2.1
04:20 1014 29.94 843 24.89 -14.7 5.5 87 -16.4 2.5
04:25 1014 29.94 843 24.89 -14.8 5.4 91 -16 3.3
04:30 1014 29.94 843 24.89 -15.2 4.7 87 -16.9 1.6
04:35 1014 29.94 843 24.89 -15.2 4.7 89 -16.6 2.2
04:40 1014 29.94 843 24.89 -15.1 4.8 89 -16.5 2.3
04:45 1014 29.94 843 24.89 -14.9 5.2 91 -16 3.2
04:50 1014 29.94 843 24.89 -13.9 6.9 94 -14.7 5.6
04:55 1014 29.94 843 24.89 -13.7 7.4 90 -15 5.1
05:00 1014 29.94 843 24.89 -13.2 8.3 97 -13.6 7.5
05:05 1014 29.94 843 24.89 -12.7 9.2 93 -13.5 7.7
05:10 1014 29.94 843 24.89 -12.5 9.6 93 -13.4 7.9
05:15 1014 29.94 843 24.89 -12.3 9.9 95 -12.9 8.8
05:20 1014 29.94 843 24.89 -11.7 10.9 93 -12.6 9.4
05:25 1014 29.94 843 24.89 -11.6 11.2 92 -12.6 9.3
05:30 1014 29.94 843 24.89 -11.3 11.7 90 -12.7 9.2
05:35 1014 29.94 843 24.89 -10.9 12.3 89 -12.3 9.8
05:40 1013 29.91 843 24.89 -10.2 13.7 86 -12.1 10.2
05:45 1013 29.91 843 24.89 -9.2 15.4 83 -11.7 11
05:50 1013 29.91 843 24.89 -7.9 17.7 77 -11.3 11.6
05:55 1013 29.91 843 24.89 -7.7 18.1 76 -11.3 11.6
06:00 1013 29.91 842 24.86 -7.8 17.9 75 -11.5 11.4
06:05 1013 29.91 843 24.89 -7.9 17.7 72 -12.1 10.2
06:10 1013 29.91 843 24.89 -9.3 15.3 82 -11.9 10.6
06:15 1013 29.91 843 24.89 -9.2 15.4 82 -11.8 10.7
06:20 1014 29.94 843 24.89 -9.2 15.5 84 -11.4 11.4
06:25 1013 29.91 843 24.89 -8.9 15.9 84 -11.2 11.8
06:30 1014 29.94 843 24.89 -8.6 16.6 79 -11.6 11.2
06:35 1014 29.94 843 24.89 -8.8 16.2 81 -11.4 11.4
06:40 1014 29.94 843 24.89 -8 17.6 78 -11.2 11.8
06:45 1014 29.94 843 24.89 -7.9 17.8 78 -11.1 12
06:50 1014 29.94 843 24.89 -8.1 17.4 79 -11.2 11.8
06:55 1014 29.94 843 24.89 -8.8 16.1 82 -11.3 11.6
07:00 1014 29.94 843 24.89 -9.4 15.1 83 -11.8 10.8
07:05 1014 29.94 843 24.89 -9.7 14.5 85 -11.8 10.7
07:10 1014 29.94 843 24.89 -9.1 15.6 83 -11.5 11.4
07:15 1014 29.94 843 24.89 -9.9 14.2 88 -11.5 11.4
07:20 1014 29.94 843 24.89 -9.2 15.4 79 -12.2 10
07:25 1014 29.94 843 24.89 -10.5 13.2 82 -13 8.6
07:30 1014 29.94 843 24.89 -11.3 11.6 87 -13.1 8.4
07:35 1014 29.94 843 24.89 -10.8 12.5 86 -12.8 9
07:40 1014 29.94 843 24.89 -10.1 13.9 83 -12.5 9.6
07:45 1014 29.94 843 24.89 -9.9 14.2 83 -12.3 9.8
07:50 1014 29.94 843 24.89 -10.2 13.7 78 -13.3 8
07:55 1013 29.91 843 24.89 -11.1 12.1 84 -13.2 8.2
08:00 1014 29.94 843 24.89 -11 12.2 84 -13.2 8.2
08:05 1014 29.94 843 24.89 -11.4 11.4 83 -13.8 7.1
08:10 1014 29.94 843 24.89 -11.9 10.6 82 -14.4 6
08:15 1014 29.94 843 24.89 -12.2 10.1 82 -14.6 5.7
08:20 1014 29.94 843 24.89 -12.5 9.6 83 -14.8 5.4
08:25 1014 29.94 843 24.89 -12.3 9.8 82 -14.7 5.5
08:30 1014 29.94 843 24.89 -12.2 10 84 -14.3 6.2
08:35 1014 29.94 843 24.89 -12.1 10.2 84 -14.3 6.3
08:40 1014 29.94 843 24.89 -11.9 10.6 83 -14.2 6.4
08:45 1014 29.94 843 24.89 -11.2 11.8 79 -14.1 6.6
08:50 1014 29.94 843 24.89 -10.8 12.6 79 -13.8 7.2
08:55 1014 29.94 843 24.89 -9.7 14.5 73 -13.7 7.4
09:00 1014 29.94 843 24.89 -9.6 14.8 73 -13.5 7.8
09:05 1014 29.94 843 24.89 -10 14 72 -14.1 6.6
09:10 1014 29.94 843 24.89 -9.1 15.6 67 -14.1 6.7
09:15 1014 29.94 843 24.89 -9.6 14.8 71 -14 6.9
09:20 1014 29.94 843 24.89 -9.8 14.3 73 -13.7 7.3
09:25 1014 29.94 843 24.89 -9.7 14.5 74 -13.5 7.6
09:30 1014 29.94 843 24.89 -9.6 14.7 74 -13.4 7.8
09:35 1014 29.94 844 24.92 -9.6 14.6 74 -13.5 7.8
09:40 1014 29.94 844 24.92 -9.5 14.9 74 -13.3 8.1
09:45 1014 29.94 843 24.89 -9.4 15.2 75 -13.1 8.4
09:50 1014 29.94 843 24.89 -9.1 15.6 75 -12.8 9
09:55 1014 29.94 843 24.89 -8.6 16.5 72 -12.7 9.1
10:00 1014 29.94 843 24.89 -8.3 17.1 72 -12.5 9.5
10:05 1014 29.94 844 24.92 -7.8 17.9 69 -12.5 9.5
10:10 1014 29.94 844 24.92 -7.4 18.7 70 -12 10.4
10:15 1015 29.97 844 24.92 -7.4 18.7 69 -12.2 10.1
10:20 1015 29.97 844 24.92 -8.4 16.9 72 -12.6 9.3
10:25 1015 29.97 844 24.92 -9.1 15.6 70 -13.6 7.5
10:30 1015 29.97 844 24.92 -9.8 14.5 73 -13.7 7.4
10:35 1015 29.97 844 24.92 -9.7 14.5 72 -13.8 7.1
10:40 1015 29.97 844 24.92 -9.5 14.9 72 -13.6 7.5
10:45 1015 29.97 844 24.92 -9.1 15.6 70 -13.7 7.4
10:50 1015 29.97 844 24.92 -8.2 17.2 66 -13.5 7.8
10:55 1015 29.97 844 24.92 -8.4 16.8 69 -13.1 8.4
11:00 1015 29.97 844 24.92 -8.1 17.5 68 -13 8.6
11:05 1015 29.97 844 24.92 -7.9 17.8 66 -13.1 8.4
11:10 1015 29.97 844 24.92 -7.6 18.4 67 -12.6 9.3
11:15 1015 29.97 844 24.92 -7.7 18.2 68 -12.6 9.4
11:20 1015 29.97 844 24.92 -7.2 19.1 64 -12.9 8.7
11:25 1015 29.97 844 24.92 -7.1 19.2 67 -12.2 10
11:30 1015 29.97 844 24.92 -6.9 19.6 67 -12.1 10.2
11:35 1015 29.97 844 24.92 -7.4 18.7 69 -12.1 10.2
11:40 1015 29.97 844 24.92 -6.6 20.1 65 -12.2 10.1
11:45 1014 29.94 844 24.92 -6.1 21 66 -11.4 11.4
11:50 1014 29.94 844 24.92 -6.3 20.7 67 -11.4 11.4
11:55 1014 29.94 844 24.92 -5.5 22.2 64 -11.2 11.8
12:00 1014 29.94 843 24.89 -4.9 23.1 63 -11 12.2
12:05 1014 29.94 843 24.89 -4.6 23.6 61 -11.2 11.9
12:10 1014 29.94 843 24.89 -4.4 24.1 60 -11.1 12.1
12:15 1014 29.94 843 24.89 -3.5 25.6 55 -11.2 11.8
12:20 1014 29.94 843 24.89 -2.6 27.3 52 -11.2 11.8
12:25 1014 29.94 843 24.89 -2.1 28.3 49 -11.3 11.7
12:30 1014 29.94 843 24.89 -1.7 28.9 49 -11.1 12
12:35 1014 29.94 843 24.89 -2 28.4 48 -11.5 11.2
12:40 1014 29.94 843 24.89 -2 28.3 51 -10.8 12.6
12:45 1014 29.94 843 24.89 -1.4 29.5 47 -11.3 11.6
12:50 1014 29.94 843 24.89 -0.8 30.6 45 -11.4 11.5
12:55 1014 29.94 843 24.89 -0.5 31.1 45 -11.1 12
13:00 1014 29.94 843 24.89 -0.3 31.5 44 -11.2 11.9
13:05 1014 29.94 843 24.89 -0.3 31.4 45 -10.9 12.3
13:10 1014 29.94 843 24.89 -0.9 30.3 46 -11.1 12
13:15 1014 29.94 843 24.89 -0.7 30.7 47 -10.8 12.6
13:20 1014 29.94 843 24.89 -0.6 30.9 43 -11.6 11
13:25 1014 29.94 843 24.89 -0.6 30.9 45 -11.2 11.9
13:30 1014 29.94 843 24.89 -1.3 29.6 46 -11.6 11.2
13:35 1014 29.94 843 24.89 -0.8 30.5 43 -11.8 10.8
13:40 1014 29.94 843 24.89 -0.7 30.7 45 -11.3 11.7
13:45 1014 29.94 843 24.89 -0.8 30.7 44 -11.6 11.1
13:50 1014 29.94 843 24.89 -1.3 29.6 46 -11.6 11.2
13:55 1013 29.91 843 24.89 -1.6 29.1 47 -11.6 11.2
14:00 1013 29.91 843 24.89 -1.4 29.6 46 -11.5 11.4
14:05 1013 29.91 842 24.86 -1.5 29.4 46 -11.7 11
14:10 1013 29.91 842 24.86 -1.9 28.5 47 -11.9 10.6
14:15 1013 29.91 842 24.86 -1.6 29.2 46 -11.9 10.6
14:20 1013 29.91 842 24.86 -1.3 29.7 44 -12.1 10.2
14:25 1013 29.91 843 24.89 -0.8 30.5 42 -12.2 10
14:30 1013 29.91 842 24.86 -0.3 31.4 41 -12.2 10.1
14:35 1013 29.91 843 24.89 0 32.1 40 -12 10.4
14:40 1013 29.91 843 24.89 -0 31.9 42 -11.6 11.1
14:45 1013 29.91 843 24.89 -0.4 31.2 44 -11.2 11.8
14:50 1013 29.91 843 24.89 -1.2 29.9 45 -11.6 11.1
14:55 1013 29.91 842 24.86 -1.5 29.4 44 -12.1 10.2
15:00 1013 29.91 842 24.86 -1.3 29.7 45 -11.9 10.7
15:05 1013 29.91 842 24.86 -0.8 30.5 50 -10 14
15:10 1013 29.91 842 24.86 -1.2 29.8 52 -9.8 14.4
15:15 1013 29.91 842 24.86 -1.4 29.4 55 -9.4 15.1
15:20 1013 29.91 842 24.86 -1.8 28.7 56 -9.4 15
15:25 1013 29.91 842 24.86 -1.6 29 56 -9.3 15.3
15:30 1013 29.91 842 24.86 -1.6 29.1 54 -9.7 14.6
15:35 1013 29.91 842 24.86 -2 28.5 55 -9.8 14.3
15:40 1013 29.91 842 24.86 -1.8 28.8 54 -9.9 14.2
15:45 1013 29.91 842 24.86 -1.5 29.3 54 -9.6 14.7
15:50 1013 29.91 842 24.86 -1.2 29.8 54 -9.5 14.9
15:55 1013 29.91 842 24.86 -0.9 30.3 52 -9.5 14.9
16:00 1013 29.91 842 24.86 -1.2 29.9 56 -8.8 16.1
16:05 1013 29.91 842 24.86 -1.7 28.9 58 -8.9 15.9
16:10 1013 29.91 842 24.86 -1.9 28.7 58 -9.1 15.5
16:15 1013 29.91 842 24.86 -1.6 29.2 56 -9.3 15.2
16:20 1013 29.91 842 24.86 -0.7 30.8 51 -9.5 14.9
16:25 1013 29.91 842 24.86 -0.6 31 52 -9.4 15.1
16:30 1013 29.91 842 24.86 -1.1 30 54 -9.3 15.3
16:35 1013 29.91 842 24.86 -1.3 29.7 55 -9.2 15.5
16:40 1013 29.91 842 24.86 -2 28.4 57 -9.4 15.1
16:45 1013 29.91 842 24.86 -3 26.5 59 -9.9 14.2
16:50 1013 29.91 842 24.86 -3.7 25.3 63 -9.9 14.2
16:55 1013 29.91 842 24.86 -4.6 23.7 67 -9.9 14.3
17:00 1013 29.91 842 24.86 -5.4 22.2 69 -10.3 13.5
17:05 1013 29.91 842 24.86 -5.9 21.4 71 -10.4 13.2
17:10 1013 29.91 842 24.86 -6 21.1 72 -10.3 13.4
17:15 1013 29.91 842 24.86 -5.9 21.3 70 -10.5 13.1
17:20 1013 29.91 842 24.86 -5.8 21.5 70 -10.4 13.2
17:25 1013 29.91 842 24.86 -5.8 21.5 71 -10.3 13.5
17:30 1013 29.91 842 24.86 -5.8 21.6 72 -10 13.9
17:35 1013 29.91 842 24.86 -5.8 21.6 70 -10.4 13.3
17:40 1013 29.91 842 24.86 -5.4 22.2 66 -10.8 12.6
17:45 1013 29.91 842 24.86 -5.4 22.2 68 -10.5 13.2
17:50 1013 29.91 842 24.86 -5.6 21.9 70 -10.3 13.4
17:55 1013 29.91 842 24.86 -5.7 21.8 64 -11.3 11.6
18:00 1013 29.91 842 24.86 -5.3 22.4 63 -11.3 11.7
18:05 1013 29.91 842 24.86 -5.1 22.8 62 -11.4 11.5
18:10 1012 29.88 842 24.86 -4.9 23.2 60 -11.6 11.1
18:15 1012 29.88 842 24.86 -4.9 23.2 59 -11.7 11
18:20 1012 29.88 842 24.86 -5 23 63 -10.9 12.4
18:25 1012 29.88 842 24.86 -5.3 22.5 66 -10.7 12.8
18:30 1012 29.88 841 24.83 -5.5 22.1 66 -10.9 12.3
18:35 1012 29.88 841 24.83 -5.5 22 68 -10.6 12.9
18:40 1012 29.88 841 24.83 -5.6 21.9 72 -9.9 14.2
18:45 1012 29.88 841 24.83 -5.8 21.5 70 -10.4 13.2
18:50 1012 29.88 841 24.83 -5.9 21.3 68 -10.9 12.3
18:55 1012 29.88 841 24.83 -5.9 21.4 67 -11 12.2
19:00 1012 29.88 841 24.83 -5.8 21.6 69 -10.6 13
19:05 1012 29.88 841 24.83 -5.5 22.2 69 -10.3 13.4
19:10 1012 29.88 841 24.83 -5.3 22.5 67 -10.6 13
19:15 1012 29.88 841 24.83 -5.3 22.4 65 -11 12.3
19:20 1012 29.88 841 24.83 -5.4 22.4 67 -10.6 12.9
19:25 1012 29.88 841 24.83 -5.2 22.6 65 -10.8 12.5
19:30 1012 29.88 841 24.83 -5.6 22 66 -10.9 12.4
19:35 1012 29.88 841 24.83 -5.5 22 67 -10.8 12.6
19:40 1012 29.88 841 24.83 -5.4 22.2 67 -10.6 13
19:45 1011 29.85 841 24.83 -5.4 22.4 67 -10.6 12.9
19:50 1011 29.85 841 24.83 -5.8 21.6 68 -10.7 12.8
19:55 1011 29.85 840 24.81 -6.1 21.1 69 -10.9 12.5
20:00 1011 29.85 840 24.81 -5.7 21.7 66 -11.2 11.9
20:05 1011 29.85 840 24.81 -5.2 22.6 63 -11.2 11.9
20:10 1011 29.85 840 24.81 -5.1 22.9 63 -11.1 12
20:15 1011 29.85 840 24.81 -5.1 22.8 63 -11.1 12.1
20:20 1011 29.85 840 24.81 -5.4 22.2 65 -11 12.1
20:25 1011 29.85 840 24.81 -5.7 21.8 66 -11.1 12
20:30 1011 29.85 840 24.81 -5.9 21.5 66 -11.2 11.8
20:35 1011 29.85 840 24.81 -6.3 20.6 69 -11.2 11.8
20:40 1011 29.85 840 24.81 -6.7 19.9 70 -11.3 11.7
20:45 1011 29.85 840 24.81 -7.2 19 73 -11.3 11.6
20:50 1011 29.85 840 24.81 -6.9 19.5 70 -11.5 11.3
20:55 1011 29.85 840 24.81 -7.2 19.1 74 -11.1 12
21:00 1011 29.85 840 24.81 -7.7 18.1 77 -11.1 12
21:05 1011 29.85 840 24.81 -8.3 17.2 78 -11.5 11.4
21:10 1011 29.85 840 24.81 -9.1 15.6 78 -12.3 9.9
21:15 1011 29.85 840 24.81 -9.7 14.5 78 -12.9 8.8
21:20 1011 29.85 840 24.81 -10 14.1 77 -13.2 8.2
21:25 1011 29.85 840 24.81 -9.9 14.2 77 -13.3 8.1
21:30 1011 29.85 840 24.81 -9.9 14.2 77 -13.2 8.3
21:35 1011 29.85 840 24.81 -10 14 77 -13.4 7.9
21:40 1011 29.85 840 24.81 -10.2 13.7 78 -13.4 7.9
21:45 1011 29.85 840 24.81 -10.3 13.4 78 -13.4 7.8
21:50 1011 29.85 840 24.81 -10.5 13.2 79 -13.4 7.8
21:55 1011 29.85 840 24.81 -10.6 12.9 80 -13.5 7.8
22:00 1011 29.85 840 24.81 -10.7 12.7 80 -13.5 7.6
22:05 1011 29.85 840 24.81 -10.8 12.6 80 -13.7 7.4
22:10 1011 29.85 840 24.81 -10.9 12.4 81 -13.6 7.6
22:15 1010 29.83 840 24.81 -11.1 12 81 -13.8 7.2
22:20 1010 29.83 840 24.81 -11.5 11.3 83 -13.9 7.1
22:25 1010 29.83 840 24.81 -11.5 11.2 83 -13.8 7.1
22:30 1010 29.83 840 24.81 -11.8 10.8 85 -13.8 7.1
22:35 1010 29.83 840 24.81 -12.1 10.3 85 -14.1 6.6
22:40 1010 29.83 839 24.78 -12.1 10.3 85 -14 6.7
22:45 1010 29.83 840 24.81 -11.5 11.3 84 -13.7 7.4
22:50 1010 29.83 839 24.78 -11.3 11.7 85 -13.3 8
22:55 1010 29.83 839 24.78 -11.5 11.4 84 -13.7 7.3
23:00 1010 29.83 839 24.78 -11.6 11.2 83 -13.8 7.1
23:05 1010 29.83 839 24.78 -11.9 10.7 85 -13.8 7.1
23:10 1010 29.83 839 24.78 -11.8 10.7 84 -14.1 6.7
23:15 1010 29.83 839 24.78 -11.5 11.3 83 -13.8 7.1
23:20 1010 29.83 839 24.78 -11.1 12.1 85 -13.1 8.4
23:25 1010 29.83 839 24.78 -10.2 13.6 82 -12.7 9.1
23:30 1010 29.83 839 24.78 -10.1 13.9 81 -12.7 9.2
23:35 1009 29.8 839 24.78 -9.3 15.2 77 -12.6 9.3
23:40 1009 29.8 838 24.75 -9 15.7 75 -12.7 9.2
23:45 1009 29.8 838 24.75 -9.3 15.2 76 -12.9 8.8
23:50 1009 29.8 838 24.75 -9.9 14.2 78 -13 8.6
23:55 1009 29.8 838 24.75 -10.1 13.8 76 -13.6 7.6
24:00 1009 29.8 838 24.75 -10.9 12.4 82 -13.3 8